sensor_id;sensor_type;location;lat;lon;timestamp;pressure;altitude;pressure_sealevel;temperature;humidity
42385;BME280;28042;43.986;22.860;2022-09-09T00:00:14;101043.09;;;18.54;100.00
42385;BME280;28042;43.986;22.860;2022-09-09T00:02:45;101031.31;;;18.47;100.00
42385;BME280;28042;43.986;22.860;2022-09-09T00:07:48;101024.44;;;18.50;100.00
42385;BME280;28042;43.986;22.860;2022-09-09T00:10:22;101024.34;;;18.56;100.00
42385;BME280;28042;43.986;22.860;2022-09-09T00:15:25;101035.97;;;18.58;100.00
42385;BME280;28042;43.986;22.860;2022-09-09T00:20:30;101038.75;;;18.58;100.00
42385;BME280;28042;43.986;22.860;2022-09-09T00:22:59;101050.88;;;18.57;100.00
42385;BME280;28042;43.986;22.860;2022-09-09T00:25:49;101052.81;;;18.57;100.00
42385;BME280;28042;43.986;22.860;2022-09-09T00:28:19;101043.34;;;18.53;100.00
42385;BME280;28042;43.986;22.860;2022-09-09T00:30:44;101044.41;;;18.52;100.00
42385;BME280;28042;43.986;22.860;2022-09-09T00:33:14;101038.50;;;18.48;99.46
42385;BME280;28042;43.986;22.860;2022-09-09T00:35:47;101040.34;;;18.43;99.96
42385;BME280;28042;43.986;22.860;2022-09-09T00:38:18;101044.16;;;18.42;100.00
42385;BME280;28042;43.986;22.860;2022-09-09T00:40:46;101046.56;;;18.38;100.00
42385;BME280;28042;43.986;22.860;2022-09-09T00:48:16;101047.06;;;18.47;100.00
42385;BME280;28042;43.986;22.860;2022-09-09T00:50:46;101050.66;;;18.47;99.77
42385;BME280;28042;43.986;22.860;2022-09-09T00:58:24;101044.06;;;18.36;100.00
42385;BME280;28042;43.986;22.860;2022-09-09T01:00:55;101034.09;;;18.35;100.00
42385;BME280;28042;43.986;22.860;2022-09-09T01:03:36;101042.03;;;18.44;100.00
42385;BME280;28042;43.986;22.860;2022-09-09T01:06:16;101036.50;;;18.44;99.80
42385;BME280;28042;43.986;22.860;2022-09-09T01:08:44;101044.16;;;18.42;99.58
42385;BME280;28042;43.986;22.860;2022-09-09T01:11:22;101044.41;;;18.40;99.56
42385;BME280;28042;43.986;22.860;2022-09-09T01:13:49;101042.47;;;18.41;99.85
42385;BME280;28042;43.986;22.860;2022-09-09T01:16:18;101046.94;;;18.30;100.00
42385;BME280;28042;43.986;22.860;2022-09-09T01:18:44;101035.06;;;18.29;100.00
42385;BME280;28042;43.986;22.860;2022-09-09T01:26:35;101044.19;;;18.18;100.00
42385;BME280;28042;43.986;22.860;2022-09-09T01:29:02;101037.09;;;18.11;100.00
42385;BME280;28042;43.986;22.860;2022-09-09T01:34:12;101034.44;;;18.04;100.00
42385;BME280;28042;43.986;22.860;2022-09-09T01:39:03;101031.22;;;18.07;100.00
42385;BME280;28042;43.986;22.860;2022-09-09T01:41:29;101036.84;;;18.00;100.00
42385;BME280;28042;43.986;22.860;2022-09-09T01:43:54;101032.53;;;17.93;100.00
42385;BME280;28042;43.986;22.860;2022-09-09T01:46:21;101040.81;;;17.93;100.00
42385;BME280;28042;43.986;22.860;2022-09-09T01:48:46;101041.41;;;17.95;100.00
42385;BME280;28042;43.986;22.860;2022-09-09T01:51:12;101041.28;;;17.90;100.00
42385;BME280;28042;43.986;22.860;2022-09-09T01:53:38;101048.94;;;17.88;100.00
42385;BME280;28042;43.986;22.860;2022-09-09T01:56:07;101046.66;;;17.85;100.00
42385;BME280;28042;43.986;22.860;2022-09-09T01:58:51;101045.59;;;17.86;100.00
42385;BME280;28042;43.986;22.860;2022-09-09T02:01:30;101056.13;;;17.89;100.00
42385;BME280;28042;43.986;22.860;2022-09-09T02:04:02;101052.34;;;17.90;100.00
42385;BME280;28042;43.986;22.860;2022-09-09T02:06:30;101048.25;;;17.92;100.00
42385;BME280;28042;43.986;22.860;2022-09-09T02:08:59;101054.00;;;17.91;100.00
42385;BME280;28042;43.986;22.860;2022-09-09T02:11:26;101063.22;;;17.85;100.00
42385;BME280;28042;43.986;22.860;2022-09-09T02:13:57;101060.47;;;17.85;100.00
42385;BME280;28042;43.986;22.860;2022-09-09T02:16:25;101053.28;;;17.84;100.00
42385;BME280;28042;43.986;22.860;2022-09-09T02:21:28;101057.13;;;17.83;100.00
42385;BME280;28042;43.986;22.860;2022-09-09T02:23:54;101048.09;;;17.75;100.00
42385;BME280;28042;43.986;22.860;2022-09-09T02:26:21;101034.38;;;17.69;100.00
42385;BME280;28042;43.986;22.860;2022-09-09T02:28:49;101042.44;;;17.70;100.00
42385;BME280;28042;43.986;22.860;2022-09-09T02:31:16;101046.19;;;17.76;100.00
42385;BME280;28042;43.986;22.860;2022-09-09T02:33:45;101052.03;;;17.79;100.00
42385;BME280;28042;43.986;22.860;2022-09-09T02:36:12;101059.72;;;17.77;100.00
42385;BME280;28042;43.986;22.860;2022-09-09T02:38:42;101055.16;;;17.71;100.00
42385;BME280;28042;43.986;22.860;2022-09-09T02:41:10;101053.84;;;17.74;100.00
42385;BME280;28042;43.986;22.860;2022-09-09T02:43:36;101050.09;;;17.68;100.00
42385;BME280;28042;43.986;22.860;2022-09-09T02:49:09;101052.63;;;17.70;100.00
42385;BME280;28042;43.986;22.860;2022-09-09T02:54:10;101045.41;;;17.69;100.00
42385;BME280;28042;43.986;22.860;2022-09-09T02:56:40;101049.72;;;17.65;100.00
42385;BME280;28042;43.986;22.860;2022-09-09T02:59:06;101051.59;;;17.52;100.00
42385;BME280;28042;43.986;22.860;2022-09-09T03:01:32;101050.75;;;17.52;100.00
42385;BME280;28042;43.986;22.860;2022-09-09T03:03:57;101055.53;;;17.45;100.00
42385;BME280;28042;43.986;22.860;2022-09-09T03:06:23;101056.66;;;17.56;100.00
42385;BME280;28042;43.986;22.860;2022-09-09T03:08:48;101057.84;;;17.60;100.00
42385;BME280;28042;43.986;22.860;2022-09-09T03:11:15;101056.53;;;17.62;100.00
42385;BME280;28042;43.986;22.860;2022-09-09T03:13:40;101049.94;;;17.63;100.00
42385;BME280;28042;43.986;22.860;2022-09-09T03:16:05;101050.63;;;17.47;100.00
42385;BME280;28042;43.986;22.860;2022-09-09T03:18:31;101047.88;;;17.47;100.00
42385;BME280;28042;43.986;22.860;2022-09-09T03:20:57;101050.47;;;17.42;100.00
42385;BME280;28042;43.986;22.860;2022-09-09T03:23:23;101056.75;;;17.49;100.00
42385;BME280;28042;43.986;22.860;2022-09-09T03:25:49;101065.25;;;17.47;100.00
42385;BME280;28042;43.986;22.860;2022-09-09T03:28:15;101071.63;;;17.48;100.00
42385;BME280;28042;43.986;22.860;2022-09-09T03:30:40;101076.91;;;17.49;100.00
42385;BME280;28042;43.986;22.860;2022-09-09T03:33:05;101072.91;;;17.45;100.00
42385;BME280;28042;43.986;22.860;2022-09-09T03:35:31;101054.50;;;17.28;100.00
42385;BME280;28042;43.986;22.860;2022-09-09T03:37:56;101053.84;;;17.14;100.00
42385;BME280;28042;43.986;22.860;2022-09-09T03:40:22;101057.13;;;17.22;100.00
42385;BME280;28042;43.986;22.860;2022-09-09T03:42:47;101058.34;;;17.27;100.00
42385;BME280;28042;43.986;22.860;2022-09-09T03:45:13;101057.97;;;17.23;100.00
42385;BME280;28042;43.986;22.860;2022-09-09T03:47:39;101061.88;;;17.15;100.00
42385;BME280;28042;43.986;22.860;2022-09-09T03:50:05;101054.72;;;17.26;100.00
42385;BME280;28042;43.986;22.860;2022-09-09T03:52:34;101048.53;;;17.31;100.00
42385;BME280;28042;43.986;22.860;2022-09-09T03:55:00;101052.97;;;17.32;100.00
42385;BME280;28042;43.986;22.860;2022-09-09T03:57:26;101062.91;;;17.33;100.00
42385;BME280;28042;43.986;22.860;2022-09-09T03:59:51;101068.78;;;17.36;100.00
42385;BME280;28042;43.986;22.860;2022-09-09T04:02:17;101061.75;;;17.40;100.00
42385;BME280;28042;43.986;22.860;2022-09-09T04:04:42;101067.03;;;17.42;100.00
42385;BME280;28042;43.986;22.860;2022-09-09T04:07:07;101080.81;;;17.42;100.00
42385;BME280;28042;43.986;22.860;2022-09-09T04:09:33;101088.34;;;17.35;100.00
42385;BME280;28042;43.986;22.860;2022-09-09T04:11:58;101083.22;;;17.38;100.00
42385;BME280;28042;43.986;22.860;2022-09-09T04:14:24;101082.75;;;17.41;100.00
42385;BME280;28042;43.986;22.860;2022-09-09T04:16:53;101085.41;;;17.48;100.00
42385;BME280;28042;43.986;22.860;2022-09-09T04:19:19;101087.78;;;17.44;100.00
42385;BME280;28042;43.986;22.860;2022-09-09T04:21:44;101093.56;;;17.55;100.00
42385;BME280;28042;43.986;22.860;2022-09-09T04:24:09;101088.56;;;17.63;100.00
42385;BME280;28042;43.986;22.860;2022-09-09T04:26:35;101094.41;;;17.73;100.00
42385;BME280;28042;43.986;22.860;2022-09-09T04:29:01;101088.91;;;17.85;100.00
42385;BME280;28042;43.986;22.860;2022-09-09T04:31:27;101094.44;;;17.85;100.00
42385;BME280;28042;43.986;22.860;2022-09-09T04:33:52;101098.03;;;17.86;100.00
42385;BME280;28042;43.986;22.860;2022-09-09T04:36:18;101081.88;;;18.01;100.00
42385;BME280;28042;43.986;22.860;2022-09-09T04:38:44;101078.97;;;17.96;100.00
42385;BME280;28042;43.986;22.860;2022-09-09T04:41:10;101083.75;;;17.89;100.00
42385;BME280;28042;43.986;22.860;2022-09-09T04:43:36;101078.16;;;18.07;100.00
42385;BME280;28042;43.986;22.860;2022-09-09T04:46:02;101079.34;;;18.23;100.00
42385;BME280;28042;43.986;22.860;2022-09-09T04:48:27;101080.22;;;18.47;99.28
42385;BME280;28042;43.986;22.860;2022-09-09T04:50:56;101081.16;;;18.41;98.96
42385;BME280;28042;43.986;22.860;2022-09-09T04:53:21;101079.47;;;18.40;98.36
42385;BME280;28042;43.986;22.860;2022-09-09T04:55:47;101082.84;;;18.42;98.52
42385;BME280;28042;43.986;22.860;2022-09-09T04:58:13;101092.69;;;18.84;95.22
42385;BME280;28042;43.986;22.860;2022-09-09T05:00:39;101083.25;;;19.20;93.15
42385;BME280;28042;43.986;22.860;2022-09-09T05:03:05;101094.44;;;19.42;90.76
42385;BME280;28042;43.986;22.860;2022-09-09T05:05:30;101112.19;;;19.30;90.89
42385;BME280;28042;43.986;22.860;2022-09-09T05:08:06;101111.28;;;19.01;91.68
42385;BME280;28042;43.986;22.860;2022-09-09T05:10:33;101104.47;;;18.91;92.81
42385;BME280;28042;43.986;22.860;2022-09-09T05:12:58;101105.28;;;18.92;93.41
42385;BME280;28042;43.986;22.860;2022-09-09T05:15:24;101116.72;;;18.96;93.83
42385;BME280;28042;43.986;22.860;2022-09-09T05:17:49;101109.03;;;18.98;94.10
42385;BME280;28042;43.986;22.860;2022-09-09T05:20:17;101106.97;;;19.05;94.01
42385;BME280;28042;43.986;22.860;2022-09-09T05:22:43;101102.16;;;19.12;93.79
42385;BME280;28042;43.986;22.860;2022-09-09T05:25:08;101112.38;;;19.00;94.02
42385;BME280;28042;43.986;22.860;2022-09-09T05:27:34;101111.03;;;19.02;95.02
42385;BME280;28042;43.986;22.860;2022-09-09T05:29:59;101108.72;;;19.11;94.85
42385;BME280;28042;43.986;22.860;2022-09-09T05:32:25;101104.94;;;19.40;93.10
42385;BME280;28042;43.986;22.860;2022-09-09T05:34:50;101100.56;;;19.56;91.75
42385;BME280;28042;43.986;22.860;2022-09-09T05:37:17;101107.44;;;19.82;90.77
42385;BME280;28042;43.986;22.860;2022-09-09T05:39:43;101099.38;;;19.97;89.85
42385;BME280;28042;43.986;22.860;2022-09-09T05:42:08;101087.56;;;20.19;87.73
42385;BME280;28042;43.986;22.860;2022-09-09T05:44:33;101075.38;;;20.37;86.69
42385;BME280;28042;43.986;22.860;2022-09-09T05:46:59;101081.50;;;20.55;85.70
42385;BME280;28042;43.986;22.860;2022-09-09T05:49:25;101081.72;;;20.71;84.56
42385;BME280;28042;43.986;22.860;2022-09-09T05:51:50;101082.06;;;20.96;83.19
42385;BME280;28042;43.986;22.860;2022-09-09T05:54:16;101084.75;;;21.30;81.79
42385;BME280;28042;43.986;22.860;2022-09-09T05:56:42;101094.31;;;21.44;80.12
42385;BME280;28042;43.986;22.860;2022-09-09T05:59:07;101084.38;;;21.48;79.63
42385;BME280;28042;43.986;22.860;2022-09-09T06:01:33;101086.00;;;21.44;79.68
42385;BME280;28042;43.986;22.860;2022-09-09T06:03:59;101092.16;;;21.46;80.25
42385;BME280;28042;43.986;22.860;2022-09-09T06:06:25;101096.91;;;21.51;81.34
42385;BME280;28042;43.986;22.860;2022-09-09T06:08:52;101099.16;;;21.54;81.02
42385;BME280;28042;43.986;22.860;2022-09-09T06:11:18;101106.78;;;21.63;81.34
42385;BME280;28042;43.986;22.860;2022-09-09T06:13:44;101096.50;;;21.64;80.58
42385;BME280;28042;43.986;22.860;2022-09-09T06:16:16;101102.63;;;21.66;80.79
42385;BME280;28042;43.986;22.860;2022-09-09T06:18:42;101108.38;;;21.59;80.76
42385;BME280;28042;43.986;22.860;2022-09-09T06:21:14;101104.31;;;21.67;80.59
42385;BME280;28042;43.986;22.860;2022-09-09T06:23:40;101090.78;;;21.76;81.40
42385;BME280;28042;43.986;22.860;2022-09-09T06:26:10;101086.91;;;21.77;80.14
42385;BME280;28042;43.986;22.860;2022-09-09T06:28:36;101093.00;;;22.06;79.92
42385;BME280;28042;43.986;22.860;2022-09-09T06:31:03;101085.72;;;22.26;77.56
42385;BME280;28042;43.986;22.860;2022-09-09T06:33:39;101080.19;;;21.99;77.48
42385;BME280;28042;43.986;22.860;2022-09-09T06:36:16;101076.56;;;22.31;76.22
42385;BME280;28042;43.986;22.860;2022-09-09T06:38:41;101084.25;;;22.56;74.37
42385;BME280;28042;43.986;22.860;2022-09-09T06:41:08;101076.13;;;22.92;73.80
42385;BME280;28042;43.986;22.860;2022-09-09T06:43:34;101080.72;;;22.71;72.15
42385;BME280;28042;43.986;22.860;2022-09-09T06:46:04;101071.66;;;22.86;71.41
42385;BME280;28042;43.986;22.860;2022-09-09T06:48:29;101071.72;;;23.01;70.33
42385;BME280;28042;43.986;22.860;2022-09-09T06:53:27;101092.41;;;23.25;68.31
42385;BME280;28042;43.986;22.860;2022-09-09T06:55:52;101095.59;;;23.59;66.68
42385;BME280;28042;43.986;22.860;2022-09-09T06:58:18;101095.34;;;23.71;65.81
42385;BME280;28042;43.986;22.860;2022-09-09T07:00:43;101102.63;;;24.13;64.92
42385;BME280;28042;43.986;22.860;2022-09-09T07:03:09;101099.34;;;24.41;62.32
42385;BME280;28042;43.986;22.860;2022-09-09T07:05:35;101107.69;;;24.26;61.74
42385;BME280;28042;43.986;22.860;2022-09-09T07:08:00;101117.16;;;24.45;59.87
42385;BME280;28042;43.986;22.860;2022-09-09T07:10:25;101126.63;;;24.65;60.65
42385;BME280;28042;43.986;22.860;2022-09-09T07:12:51;101121.56;;;24.82;60.51
42385;BME280;28042;43.986;22.860;2022-09-09T07:15:17;101122.94;;;25.05;57.92
42385;BME280;28042;43.986;22.860;2022-09-09T07:17:44;101124.28;;;25.18;57.25
42385;BME280;28042;43.986;22.860;2022-09-09T07:20:09;101131.53;;;25.19;58.22
42385;BME280;28042;43.986;22.860;2022-09-09T07:22:34;101117.44;;;25.44;57.14
42385;BME280;28042;43.986;22.860;2022-09-09T07:25:00;101132.09;;;25.21;56.70
42385;BME280;28042;43.986;22.860;2022-09-09T07:27:27;101123.13;;;25.29;56.70
42385;BME280;28042;43.986;22.860;2022-09-09T07:29:52;101127.59;;;25.30;56.87
42385;BME280;28042;43.986;22.860;2022-09-09T07:32:19;101119.28;;;25.09;57.82
42385;BME280;28042;43.986;22.860;2022-09-09T07:34:45;101114.56;;;25.05;57.41
42385;BME280;28042;43.986;22.860;2022-09-09T07:37:11;101120.94;;;25.21;56.38
42385;BME280;28042;43.986;22.860;2022-09-09T07:39:38;101114.44;;;25.35;55.72
42385;BME280;28042;43.986;22.860;2022-09-09T07:42:04;101119.50;;;25.28;55.80
42385;BME280;28042;43.986;22.860;2022-09-09T07:44:30;101120.59;;;25.27;56.11
42385;BME280;28042;43.986;22.860;2022-09-09T07:46:57;101132.41;;;25.09;56.63
42385;BME280;28042;43.986;22.860;2022-09-09T07:49:22;101120.59;;;25.27;56.61
42385;BME280;28042;43.986;22.860;2022-09-09T07:51:48;101115.31;;;25.26;56.70
42385;BME280;28042;43.986;22.860;2022-09-09T07:54:15;101111.31;;;25.42;56.30
42385;BME280;28042;43.986;22.860;2022-09-09T07:56:41;101116.38;;;25.40;56.01
42385;BME280;28042;43.986;22.860;2022-09-09T07:59:07;101115.31;;;25.26;56.92
42385;BME280;28042;43.986;22.860;2022-09-09T08:01:38;101116.09;;;25.36;56.81
42385;BME280;28042;43.986;22.860;2022-09-09T08:04:05;101123.41;;;25.27;57.07
42385;BME280;28042;43.986;22.860;2022-09-09T08:06:37;101125.34;;;25.32;56.54
42385;BME280;28042;43.986;22.860;2022-09-09T08:09:04;101118.13;;;25.21;56.87
42385;BME280;28042;43.986;22.860;2022-09-09T08:11:29;101120.97;;;25.05;57.62
42385;BME280;28042;43.986;22.860;2022-09-09T08:13:55;101132.72;;;25.02;57.71
42385;BME280;28042;43.986;22.860;2022-09-09T08:16:24;101126.56;;;24.95;58.51
42385;BME280;28042;43.986;22.860;2022-09-09T08:18:51;101130.47;;;24.89;58.55
42385;BME280;28042;43.986;22.860;2022-09-09T08:21:17;101132.69;;;24.92;58.84
42385;BME280;28042;43.986;22.860;2022-09-09T08:23:43;101129.06;;;24.92;58.98
42385;BME280;28042;43.986;22.860;2022-09-09T08:28:39;101133.88;;;24.66;60.42
42385;BME280;28042;43.986;22.860;2022-09-09T08:31:27;101138.34;;;24.62;61.71
42385;BME280;28042;43.986;22.860;2022-09-09T08:33:51;101142.28;;;24.50;61.22
42385;BME280;28042;43.986;22.860;2022-09-09T08:36:18;101140.03;;;24.32;63.53
42385;BME280;28042;43.986;22.860;2022-09-09T08:38:43;101144.22;;;24.24;63.11
42385;BME280;28042;43.986;22.860;2022-09-09T08:41:19;101136.09;;;24.18;64.56
42385;BME280;28042;43.986;22.860;2022-09-09T08:43:50;101127.75;;;24.18;64.69
42385;BME280;28042;43.986;22.860;2022-09-09T08:46:22;101118.25;;;24.19;65.08
42385;BME280;28042;43.986;22.860;2022-09-09T08:48:57;101108.78;;;24.30;65.85
42385;BME280;28042;43.986;22.860;2022-09-09T08:51:27;101118.28;;;24.39;63.82
42385;BME280;28042;43.986;22.860;2022-09-09T08:53:54;101101.53;;;24.55;63.85
42385;BME280;28042;43.986;22.860;2022-09-09T08:56:23;101107.13;;;24.60;64.66
42385;BME280;28042;43.986;22.860;2022-09-09T08:58:49;101106.53;;;24.63;62.87
42385;BME280;28042;43.986;22.860;2022-09-09T09:11:39;101079.78;;;24.46;67.12
42385;BME280;28042;43.986;22.860;2022-09-09T09:14:24;101083.13;;;24.48;66.92
42385;BME280;28042;43.986;22.860;2022-09-09T09:19:15;101078.09;;;24.30;67.74
42385;BME280;28042;43.986;22.860;2022-09-09T09:21:45;101091.78;;;24.27;68.13
42385;BME280;28042;43.986;22.860;2022-09-09T09:24:23;101086.75;;;24.13;66.98
42385;BME280;28042;43.986;22.860;2022-09-09T09:26:51;101082.03;;;23.99;67.96
42385;BME280;28042;43.986;22.860;2022-09-09T09:29:18;101081.75;;;24.00;66.83
42385;BME280;28042;43.986;22.860;2022-09-09T09:31:55;101080.91;;;24.05;66.75
42385;BME280;28042;43.986;22.860;2022-09-09T09:34:22;101078.38;;;24.23;65.43
42385;BME280;28042;43.986;22.860;2022-09-09T09:36:57;101088.16;;;24.26;65.39
42385;BME280;28042;43.986;22.860;2022-09-09T09:39:30;101079.75;;;24.31;63.60
42385;BME280;28042;43.986;22.860;2022-09-09T09:41:56;101082.84;;;24.30;63.28
42385;BME280;28042;43.986;22.860;2022-09-09T09:46:50;101091.50;;;24.18;64.77
42385;BME280;28042;43.986;22.860;2022-09-09T09:49:16;101093.72;;;24.06;63.90
42385;BME280;28042;43.986;22.860;2022-09-09T09:51:42;101093.72;;;24.06;65.01
42385;BME280;28042;43.986;22.860;2022-09-09T09:56:43;101102.63;;;24.03;63.78
42385;BME280;28042;43.986;22.860;2022-09-09T09:59:23;101104.88;;;24.01;64.26
42385;BME280;28042;43.986;22.860;2022-09-09T10:01:49;101099.84;;;24.13;64.58
42385;BME280;28042;43.986;22.860;2022-09-09T10:04:15;101099.34;;;24.41;64.26
42385;BME280;28042;43.986;22.860;2022-09-09T10:06:41;101096.44;;;24.87;62.46
42385;BME280;28042;43.986;22.860;2022-09-09T10:22:04;101093.97;;;25.50;58.58
42385;BME280;28042;43.986;22.860;2022-09-09T10:37:00;101097.25;;;26.07;56.26
42385;BME280;28042;43.986;22.860;2022-09-09T10:39:35;101088.63;;;26.32;55.21
42385;BME280;28042;43.986;22.860;2022-09-09T10:52:05;101100.00;;;26.46;53.71
42385;BME280;28042;43.986;22.860;2022-09-09T10:57:17;101098.06;;;27.23;51.51
42385;BME280;28042;43.986;22.860;2022-09-09T10:59:48;101086.22;;;27.26;51.17
42385;BME280;28042;43.986;22.860;2022-09-09T11:02:22;101088.53;;;27.62;50.19
42385;BME280;28042;43.986;22.860;2022-09-09T11:07:25;101078.13;;;28.19;48.38
42385;BME280;28042;43.986;22.860;2022-09-09T11:09:54;101085.63;;;27.72;49.70
42385;BME280;28042;43.986;22.860;2022-09-09T11:12:23;101085.84;;;27.95;48.45
42385;BME280;28042;43.986;22.860;2022-09-09T11:14:50;101084.38;;;28.49;47.88
42385;BME280;28042;43.986;22.860;2022-09-09T11:17:23;101084.94;;;28.78;47.53
42385;BME280;28042;43.986;22.860;2022-09-09T11:19:49;101066.31;;;28.82;46.86
42385;BME280;28042;43.986;22.860;2022-09-09T11:27:31;101062.50;;;29.06;46.51
42385;BME280;28042;43.986;22.860;2022-09-09T11:40:31;101028.22;;;28.49;47.56
42385;BME280;28042;43.986;22.860;2022-09-09T11:45:35;101033.91;;;29.04;47.99
42385;BME280;28042;43.986;22.860;2022-09-09T11:48:01;101037.72;;;29.21;46.82
42385;BME280;28042;43.986;22.860;2022-09-09T11:50:29;101037.22;;;29.19;46.20
42385;BME280;28042;43.986;22.860;2022-09-09T11:55:38;101045.56;;;29.11;46.14
42385;BME280;28042;43.986;22.860;2022-09-09T11:58:05;101041.13;;;29.32;46.61
42385;BME280;28042;43.986;22.860;2022-09-09T12:00:35;101045.75;;;29.00;47.24
42385;BME280;28042;43.986;22.860;2022-09-09T12:03:02;101023.88;;;28.70;48.21
42385;BME280;28042;43.986;22.860;2022-09-09T12:08:26;101025.34;;;28.54;48.14
42385;BME280;28042;43.986;22.860;2022-09-09T12:10:53;101028.91;;;28.27;48.57
42385;BME280;28042;43.986;22.860;2022-09-09T12:13:23;101018.66;;;28.36;49.10
42385;BME280;28042;43.986;22.860;2022-09-09T12:15:49;101027.22;;;28.58;48.77
42385;BME280;28042;43.986;22.860;2022-09-09T12:18:36;101023.59;;;28.99;47.55
42385;BME280;28042;43.986;22.860;2022-09-09T12:36:47;100987.06;;;30.47;44.35
42385;BME280;28042;43.986;22.860;2022-09-09T12:39:16;100980.56;;;30.38;44.03
42385;BME280;28042;43.986;22.860;2022-09-09T12:41:50;100976.78;;;30.43;44.43
42385;BME280;28042;43.986;22.860;2022-09-09T12:44:17;100971.41;;;30.24;44.45
42385;BME280;28042;43.986;22.860;2022-09-09T12:46:43;100953.47;;;30.20;45.26
42385;BME280;28042;43.986;22.860;2022-09-09T12:49:24;100959.22;;;30.15;44.78
42385;BME280;28042;43.986;22.860;2022-09-09T12:51:51;100960.47;;;30.31;44.54
42385;BME280;28042;43.986;22.860;2022-09-09T12:54:17;100951.25;;;30.39;44.43
42385;BME280;28042;43.986;22.860;2022-09-09T12:56:45;100956.88;;;30.39;44.40
42385;BME280;28042;43.986;22.860;2022-09-09T12:59:21;100945.47;;;30.44;44.69
42385;BME280;28042;43.986;22.860;2022-09-09T13:01:54;100948.66;;;30.51;44.10
42385;BME280;28042;43.986;22.860;2022-09-09T13:04:20;100939.19;;;30.47;44.35
42385;BME280;28042;43.986;22.860;2022-09-09T13:06:47;100947.13;;;30.45;44.53
42385;BME280;28042;43.986;22.860;2022-09-09T13:09:12;100942.53;;;30.58;44.51
42385;BME280;28042;43.986;22.860;2022-09-09T13:11:39;100932.69;;;30.38;43.81
42385;BME280;28042;43.986;22.860;2022-09-09T13:14:12;100938.63;;;30.28;44.40
42385;BME280;28042;43.986;22.860;2022-09-09T13:16:43;100932.13;;;30.19;44.66
42385;BME280;28042;43.986;22.860;2022-09-09T13:19:14;100932.13;;;30.19;45.06
42385;BME280;28042;43.986;22.860;2022-09-09T13:21:41;100920.97;;;29.82;45.72
42385;BME280;28042;43.986;22.860;2022-09-09T13:27:04;100913.84;;;29.54;47.24
42385;BME280;28042;43.986;22.860;2022-09-09T13:29:30;100909.41;;;29.62;47.08
42385;BME280;28042;43.986;22.860;2022-09-09T13:32:06;100911.94;;;29.63;46.75
42385;BME280;28042;43.986;22.860;2022-09-09T13:34:38;100907.00;;;29.69;47.46
42385;BME280;28042;43.986;22.860;2022-09-09T13:37:05;100907.50;;;30.02;46.80
42385;BME280;28042;43.986;22.860;2022-09-09T13:39:34;100907.13;;;29.95;45.69
42385;BME280;28042;43.986;22.860;2022-09-09T13:42:24;100901.22;;;30.05;45.83
42385;BME280;28042;43.986;22.860;2022-09-09T13:44:51;100901.72;;;29.98;45.78
42385;BME280;28042;43.986;22.860;2022-09-09T13:47:19;100904.81;;;29.97;44.80
42385;BME280;28042;43.986;22.860;2022-09-09T13:49:45;100902.91;;;29.75;45.64
42385;BME280;28042;43.986;22.860;2022-09-09T13:52:14;100899.81;;;29.54;46.21
42385;BME280;28042;43.986;22.860;2022-09-09T13:54:42;100895.41;;;29.70;46.55
42385;BME280;28042;43.986;22.860;2022-09-09T13:57:14;100892.66;;;29.79;46.04
42385;BME280;28042;43.986;22.860;2022-09-09T13:59:40;100892.31;;;29.72;46.57
42385;BME280;28042;43.986;22.860;2022-09-09T14:02:06;100889.16;;;29.73;47.30
42385;BME280;28042;43.986;22.860;2022-09-09T14:04:31;100884.81;;;29.67;47.22
42385;BME280;28042;43.986;22.860;2022-09-09T14:06:57;100880.91;;;29.77;46.06
42385;BME280;28042;43.986;22.860;2022-09-09T14:09:23;100875.78;;;29.79;46.33
42385;BME280;28042;43.986;22.860;2022-09-09T14:11:48;100883.81;;;29.94;46.65
42385;BME280;28042;43.986;22.860;2022-09-09T14:14:13;100885.00;;;30.02;46.69
42385;BME280;28042;43.986;22.860;2022-09-09T14:16:40;100878.72;;;30.05;45.98
42385;BME280;28042;43.986;22.860;2022-09-09T14:19:05;100875.97;;;30.14;46.39
42385;BME280;28042;43.986;22.860;2022-09-09T14:21:30;100874.00;;;29.83;46.95
42385;BME280;28042;43.986;22.860;2022-09-09T14:23:57;100886.03;;;29.75;48.08
42385;BME280;28042;43.986;22.860;2022-09-09T14:26:23;100889.66;;;29.75;47.29
42385;BME280;28042;43.986;22.860;2022-09-09T14:28:49;100880.28;;;29.80;47.50
42385;BME280;28042;43.986;22.860;2022-09-09T14:31:15;100886.03;;;29.75;46.34
42385;BME280;28042;43.986;22.860;2022-09-09T14:33:42;100889.44;;;29.63;46.86
42385;BME280;28042;43.986;22.860;2022-09-09T14:36:08;100895.72;;;29.24;47.90
42385;BME280;28042;43.986;22.860;2022-09-09T14:38:34;100892.53;;;29.17;47.95
42385;BME280;28042;43.986;22.860;2022-09-09T14:41:03;100897.75;;;29.10;48.52
42385;BME280;28042;43.986;22.860;2022-09-09T14:43:29;100891.13;;;29.06;48.67
42385;BME280;28042;43.986;22.860;2022-09-09T14:45:57;100894.78;;;29.28;48.19
42385;BME280;28042;43.986;22.860;2022-09-09T14:48:23;100889.47;;;29.27;48.41
42385;BME280;28042;43.986;22.860;2022-09-09T14:50:48;100892.66;;;29.34;48.29
42385;BME280;28042;43.986;22.860;2022-09-09T14:53:14;100899.31;;;29.38;48.60
42385;BME280;28042;43.986;22.860;2022-09-09T14:55:41;100894.84;;;29.37;47.35
42385;BME280;28042;43.986;22.860;2022-09-09T14:58:07;100892.81;;;29.51;46.87
42385;BME280;28042;43.986;22.860;2022-09-09T15:00:32;100894.09;;;29.45;47.57
42385;BME280;28042;43.986;22.860;2022-09-09T15:02:58;100898.44;;;29.51;47.71